sensor_id;sensor_type;location;lat;lon;timestamp;pressure;altitude;pressure_sealevel;temperature;humidity
19761;BME280;10039;42.632;23.408;2022-07-12T00:01:46;95436.78;;;17.01;54.11
19761;BME280;10039;42.632;23.408;2022-07-12T00:04:12;95434.56;;;17.00;54.11
19761;BME280;10039;42.632;23.408;2022-07-12T00:06:38;95422.31;;;16.87;53.72
19761;BME280;10039;42.632;23.408;2022-07-12T00:09:04;95444.41;;;16.94;53.71
19761;BME280;10039;42.632;23.408;2022-07-12T00:11:30;95439.88;;;16.91;53.51
19761;BME280;10039;42.632;23.408;2022-07-12T00:13:56;95442.56;;;16.91;53.71
19761;BME280;10039;42.632;23.408;2022-07-12T00:16:21;95453.19;;;16.86;53.83
19761;BME280;10039;42.632;23.408;2022-07-12T00:18:48;95439.63;;;16.77;53.83
19761;BME280;10039;42.632;23.408;2022-07-12T00:21:14;95451.16;;;16.77;54.19
19761;BME280;10039;42.632;23.408;2022-07-12T00:23:39;95433.75;;;16.69;54.00
19761;BME280;10039;42.632;23.408;2022-07-12T00:26:05;95427.06;;;16.61;53.60
19761;BME280;10039;42.632;23.408;2022-07-12T00:28:31;95430.41;;;16.65;53.78
19761;BME280;10039;42.632;23.408;2022-07-12T00:30:57;95425.56;;;16.60;53.86
19761;BME280;10039;42.632;23.408;2022-07-12T00:33:23;95407.41;;;16.52;53.66
19761;BME280;10039;42.632;23.408;2022-07-12T00:35:48;95449.63;;;16.76;53.32
19761;BME280;10039;42.632;23.408;2022-07-12T00:38:14;95449.91;;;16.69;53.35
19761;BME280;10039;42.632;23.408;2022-07-12T00:40:39;95418.91;;;16.52;53.36
19761;BME280;10039;42.632;23.408;2022-07-12T00:43:05;95426.69;;;16.50;53.50
19761;BME280;10039;42.632;23.408;2022-07-12T00:45:31;95439.59;;;16.55;53.76
19761;BME280;10039;42.632;23.408;2022-07-12T00:47:57;95434.22;;;16.55;53.45
19761;BME280;10039;42.632;23.408;2022-07-12T00:50:23;95426.81;;;16.47;53.18
19761;BME280;10039;42.632;23.408;2022-07-12T00:52:51;95413.47;;;16.31;53.38
19761;BME280;10039;42.632;23.408;2022-07-12T00:55:18;95437.97;;;16.36;54.05
19761;BME280;10039;42.632;23.408;2022-07-12T00:57:44;95413.09;;;16.20;54.00
19761;BME280;10039;42.632;23.408;2022-07-12T01:00:12;95436.44;;;16.35;53.54
19761;BME280;10039;42.632;23.408;2022-07-12T01:02:38;95424.72;;;16.17;53.95
19761;BME280;10039;42.632;23.408;2022-07-12T01:05:05;95411.94;;;16.08;53.83
19761;BME280;10039;42.632;23.408;2022-07-12T01:07:31;95408.50;;;15.95;54.15
19761;BME280;10039;42.632;23.408;2022-07-12T01:09:58;95425.59;;;16.14;54.61
19761;BME280;10039;42.632;23.408;2022-07-12T01:12:25;95435.50;;;16.17;54.67
19761;BME280;10039;42.632;23.408;2022-07-12T01:14:51;95434.41;;;16.14;54.54
19761;BME280;10039;42.632;23.408;2022-07-12T01:17:21;95410.00;;;15.96;54.44
19761;BME280;10039;42.632;23.408;2022-07-12T01:19:48;95444.53;;;16.10;54.45
19761;BME280;10039;42.632;23.408;2022-07-12T01:22:15;95436.47;;;16.10;54.35
19761;BME280;10039;42.632;23.408;2022-07-12T01:24:41;95441.09;;;16.10;54.31
19761;BME280;10039;42.632;23.408;2022-07-12T01:27:09;95405.06;;;15.82;54.54
19761;BME280;10039;42.632;23.408;2022-07-12T01:29:35;95426.84;;;15.88;54.51
19761;BME280;10039;42.632;23.408;2022-07-12T01:32:05;95443.59;;;16.04;54.98
19761;BME280;10039;42.632;23.408;2022-07-12T01:34:59;95407.78;;;15.70;54.66
19761;BME280;10039;42.632;23.408;2022-07-12T01:37:29;95409.72;;;15.82;54.74
19761;BME280;10039;42.632;23.408;2022-07-12T01:39:57;95424.13;;;15.88;55.37
19761;BME280;10039;42.632;23.408;2022-07-12T01:42:25;95427.56;;;15.88;55.22
19761;BME280;10039;42.632;23.408;2022-07-12T01:44:52;95435.00;;;15.84;55.51
19761;BME280;10039;42.632;23.408;2022-07-12T01:47:19;95445.69;;;15.88;55.51
19761;BME280;10039;42.632;23.408;2022-07-12T01:49:45;95437.03;;;15.80;55.95
19761;BME280;10039;42.632;23.408;2022-07-12T01:52:11;95428.66;;;15.78;56.14
19761;BME280;10039;42.632;23.408;2022-07-12T01:54:37;95415.00;;;15.61;56.04
19761;BME280;10039;42.632;23.408;2022-07-12T01:57:04;95443.63;;;15.79;56.35
19761;BME280;10039;42.632;23.408;2022-07-12T01:59:30;95435.78;;;15.73;56.12
19761;BME280;10039;42.632;23.408;2022-07-12T02:01:56;95423.59;;;15.68;55.92
19761;BME280;10039;42.632;23.408;2022-07-12T02:04:22;95412.84;;;15.56;56.46
19761;BME280;10039;42.632;23.408;2022-07-12T02:06:48;95395.09;;;15.46;56.14
19761;BME280;10039;42.632;23.408;2022-07-12T02:09:14;95441.38;;;15.66;56.93
19761;BME280;10039;42.632;23.408;2022-07-12T02:11:41;95439.44;;;15.54;56.76
19761;BME280;10039;42.632;23.408;2022-07-12T02:14:07;95439.66;;;15.59;57.02
19761;BME280;10039;42.632;23.408;2022-07-12T02:16:32;95442.56;;;15.65;56.65
19761;BME280;10039;42.632;23.408;2022-07-12T02:18:58;95442.56;;;15.65;56.79
19761;BME280;10039;42.632;23.408;2022-07-12T02:21:24;95414.16;;;15.39;56.62
19761;BME280;10039;42.632;23.408;2022-07-12T02:23:50;95417.16;;;15.41;57.02
19761;BME280;10039;42.632;23.408;2022-07-12T02:26:16;95423.63;;;15.43;56.42
19761;BME280;10039;42.632;23.408;2022-07-12T02:28:42;95425.78;;;15.36;56.87
19761;BME280;10039;42.632;23.408;2022-07-12T02:31:07;95428.25;;;15.43;57.28
19761;BME280;10039;42.632;23.408;2022-07-12T02:33:33;95444.81;;;15.54;56.91
19761;BME280;10039;42.632;23.408;2022-07-12T02:36:00;95447.19;;;15.52;56.92
19761;BME280;10039;42.632;23.408;2022-07-12T02:38:25;95440.72;;;15.49;56.97
19761;BME280;10039;42.632;23.408;2022-07-12T02:40:51;95427.03;;;15.31;57.44
19761;BME280;10039;42.632;23.408;2022-07-12T02:43:26;95422.59;;;15.25;57.02
19761;BME280;10039;42.632;23.408;2022-07-12T02:45:53;95443.09;;;15.35;57.21
19761;BME280;10039;42.632;23.408;2022-07-12T02:48:19;95438.91;;;15.34;57.42
19761;BME280;10039;42.632;23.408;2022-07-12T02:50:48;95441.59;;;15.34;57.92
19761;BME280;10039;42.632;23.408;2022-07-12T02:53:14;95417.88;;;15.16;58.03
19761;BME280;10039;42.632;23.408;2022-07-12T02:55:40;95425.41;;;15.21;57.42
19761;BME280;10039;42.632;23.408;2022-07-12T02:58:06;95451.16;;;15.35;57.49
19761;BME280;10039;42.632;23.408;2022-07-12T03:00:34;95459.56;;;15.37;57.90
19761;BME280;10039;42.632;23.408;2022-07-12T03:03:00;95433.34;;;15.12;57.46
19761;BME280;10039;42.632;23.408;2022-07-12T03:05:26;95436.56;;;15.20;57.51
19761;BME280;10039;42.632;23.408;2022-07-12T03:07:52;95460.41;;;15.34;58.00
19761;BME280;10039;42.632;23.408;2022-07-12T03:10:18;95421.28;;;15.04;58.40
19761;BME280;10039;42.632;23.408;2022-07-12T03:12:44;95470.41;;;15.33;58.16
19761;BME280;10039;42.632;23.408;2022-07-12T03:15:10;95449.59;;;15.09;58.51
19761;BME280;10039;42.632;23.408;2022-07-12T03:17:36;95453.56;;;15.17;58.46
19761;BME280;10039;42.632;23.408;2022-07-12T03:20:03;95462.19;;;15.24;58.32
19761;BME280;10039;42.632;23.408;2022-07-12T03:22:31;95466.00;;;15.27;58.12
19761;BME280;10039;42.632;23.408;2022-07-12T03:24:56;95472.50;;;15.26;58.42
19761;BME280;10039;42.632;23.408;2022-07-12T03:27:22;95482.91;;;15.40;58.53
19761;BME280;10039;42.632;23.408;2022-07-12T03:29:47;95446.69;;;15.16;58.29
19761;BME280;10039;42.632;23.408;2022-07-12T03:32:13;95452.72;;;15.20;57.93
19761;BME280;10039;42.632;23.408;2022-07-12T03:34:39;95477.94;;;15.38;58.19
19761;BME280;10039;42.632;23.408;2022-07-12T03:37:04;95461.91;;;15.35;58.21
19761;BME280;10039;42.632;23.408;2022-07-12T03:39:30;95473.66;;;15.53;58.27
19761;BME280;10039;42.632;23.408;2022-07-12T03:41:55;95478.41;;;15.49;57.78
19761;BME280;10039;42.632;23.408;2022-07-12T03:44:24;95486.47;;;15.62;58.23
19761;BME280;10039;42.632;23.408;2022-07-12T03:46:49;95481.94;;;15.59;58.11
19761;BME280;10039;42.632;23.408;2022-07-12T03:49:15;95459.97;;;15.48;58.12
19761;BME280;10039;42.632;23.408;2022-07-12T03:51:40;95457.28;;;15.48;57.83
19761;BME280;10039;42.632;23.408;2022-07-12T03:54:07;95486.91;;;15.73;58.15
19761;BME280;10039;42.632;23.408;2022-07-12T03:56:36;95478.28;;;15.65;57.69
19761;BME280;10039;42.632;23.408;2022-07-12T03:59:23;95462.91;;;15.53;57.81
19761;BME280;10039;42.632;23.408;2022-07-12T04:01:48;95488.19;;;15.80;58.00
19761;BME280;10039;42.632;23.408;2022-07-12T04:04:14;95475.72;;;15.62;57.74
19761;BME280;10039;42.632;23.408;2022-07-12T04:06:39;95479.16;;;15.74;57.53
19761;BME280;10039;42.632;23.408;2022-07-12T04:09:06;95470.84;;;15.69;57.20
19761;BME280;10039;42.632;23.408;2022-07-12T04:11:33;95499.50;;;15.88;57.51
19761;BME280;10039;42.632;23.408;2022-07-12T04:13:59;95487.22;;;15.99;57.45
19761;BME280;10039;42.632;23.408;2022-07-12T04:16:25;95487.66;;;15.98;56.50
19761;BME280;10039;42.632;23.408;2022-07-12T04:18:51;95486.53;;;16.20;56.72
19761;BME280;10039;42.632;23.408;2022-07-12T04:21:17;95488.50;;;16.32;56.37
19761;BME280;10039;42.632;23.408;2022-07-12T04:23:43;95487.50;;;16.26;56.30
19761;BME280;10039;42.632;23.408;2022-07-12T04:26:09;95485.81;;;16.32;55.73
19761;BME280;10039;42.632;23.408;2022-07-12T04:28:35;95508.41;;;16.47;56.16
19761;BME280;10039;42.632;23.408;2022-07-12T04:31:01;95499.75;;;16.52;55.50
19761;BME280;10039;42.632;23.408;2022-07-12T04:33:27;95493.19;;;16.53;55.55
19761;BME280;10039;42.632;23.408;2022-07-12T04:35:52;95523.63;;;16.75;55.37
19761;BME280;10039;42.632;23.408;2022-07-12T04:38:18;95515.63;;;16.84;55.24
19761;BME280;10039;42.632;23.408;2022-07-12T04:40:43;95514.50;;;16.94;55.48
19761;BME280;10039;42.632;23.408;2022-07-12T04:43:09;95514.38;;;16.97;55.00
19761;BME280;10039;42.632;23.408;2022-07-12T04:45:35;95505.50;;;17.09;54.65
19761;BME280;10039;42.632;23.408;2022-07-12T04:48:01;95517.91;;;17.28;54.77
19761;BME280;10039;42.632;23.408;2022-07-12T04:50:26;95485.66;;;17.03;54.64
19761;BME280;10039;42.632;23.408;2022-07-12T04:52:55;95523.94;;;17.32;54.54
19761;BME280;10039;42.632;23.408;2022-07-12T05:01:42;95522.19;;;17.60;54.57
19761;BME280;10039;42.632;23.408;2022-07-12T05:04:07;95512.50;;;17.71;54.13
19761;BME280;10039;42.632;23.408;2022-07-12T05:06:33;95496.44;;;17.68;53.47
19761;BME280;10039;42.632;23.408;2022-07-12T05:08:59;95486.44;;;17.86;53.49
19761;BME280;10039;42.632;23.408;2022-07-12T05:11:25;95475.78;;;17.83;53.43
19761;BME280;10039;42.632;23.408;2022-07-12T05:13:50;95517.38;;;18.24;53.31
19761;BME280;10039;42.632;23.408;2022-07-12T05:16:16;95515.06;;;18.23;53.21
19761;BME280;10039;42.632;23.408;2022-07-12T05:18:42;95494.03;;;18.18;53.17
19761;BME280;10039;42.632;23.408;2022-07-12T05:21:08;95484.31;;;18.20;52.84
19761;BME280;10039;42.632;23.408;2022-07-12T05:23:34;95508.72;;;18.47;52.56
19761;BME280;10039;42.632;23.408;2022-07-12T05:26:01;95509.78;;;18.59;52.26
19761;BME280;10039;42.632;23.408;2022-07-12T05:28:27;95517.63;;;18.66;51.98
19761;BME280;10039;42.632;23.408;2022-07-12T05:30:53;95481.41;;;18.54;51.45
19761;BME280;10039;42.632;23.408;2022-07-12T05:33:18;95487.41;;;18.67;51.29
19761;BME280;10039;42.632;23.408;2022-07-12T05:35:44;95516.13;;;19.01;50.97
19761;BME280;10039;42.632;23.408;2022-07-12T05:38:30;95503.06;;;18.90;50.64
19761;BME280;10039;42.632;23.408;2022-07-12T05:40:56;95477.22;;;18.80;50.72
19761;BME280;10039;42.632;23.408;2022-07-12T05:43:21;95494.94;;;19.08;50.54
19761;BME280;10039;42.632;23.408;2022-07-12T05:45:47;95522.31;;;19.28;50.24
19761;BME280;10039;42.632;23.408;2022-07-12T05:48:12;95527.28;;;19.38;50.51
19761;BME280;10039;42.632;23.408;2022-07-12T05:50:38;95506.94;;;19.43;50.07
19761;BME280;10039;42.632;23.408;2022-07-12T05:53:04;95498.50;;;19.59;49.34
19761;BME280;10039;42.632;23.408;2022-07-12T05:55:48;95510.78;;;19.69;49.42
19761;BME280;10039;42.632;23.408;2022-07-12T05:58:14;95514.19;;;19.87;48.81
19761;BME280;10039;42.632;23.408;2022-07-12T06:00:40;95510.25;;;19.97;49.11
19761;BME280;10039;42.632;23.408;2022-07-12T06:03:08;95513.69;;;20.16;49.12
19761;BME280;10039;42.632;23.408;2022-07-12T06:05:34;95492.88;;;20.22;48.98
19761;BME280;10039;42.632;23.408;2022-07-12T06:08:00;95471.75;;;20.26;48.24
19761;BME280;10039;42.632;23.408;2022-07-12T06:10:26;95483.53;;;20.23;47.58
19761;BME280;10039;42.632;23.408;2022-07-12T06:12:51;95485.13;;;20.29;47.92
19761;BME280;10039;42.632;23.408;2022-07-12T06:15:17;95493.06;;;20.09;48.02
19761;BME280;10039;42.632;23.408;2022-07-12T06:17:43;95510.75;;;20.28;48.80
19761;BME280;10039;42.632;23.408;2022-07-12T06:20:11;95524.06;;;20.49;48.65
19761;BME280;10039;42.632;23.408;2022-07-12T06:22:39;95493.94;;;20.71;47.43
19761;BME280;10039;42.632;23.408;2022-07-12T06:25:05;95470.22;;;20.80;47.12
19761;BME280;10039;42.632;23.408;2022-07-12T06:27:31;95497.72;;;21.11;46.98
19761;BME280;10039;42.632;23.408;2022-07-12T06:29:57;95476.00;;;21.11;47.13
19761;BME280;10039;42.632;23.408;2022-07-12T06:32:22;95501.38;;;21.37;45.41
19761;BME280;10039;42.632;23.408;2022-07-12T06:34:48;95461.94;;;21.27;44.39
19761;BME280;10039;42.632;23.408;2022-07-12T06:37:14;95473.47;;;21.51;44.82
19761;BME280;10039;42.632;23.408;2022-07-12T06:39:40;95496.19;;;21.77;44.84
19761;BME280;10039;42.632;23.408;2022-07-12T06:42:06;95500.84;;;21.91;44.61
19761;BME280;10039;42.632;23.408;2022-07-12T06:44:32;95489.63;;;22.18;44.33
19761;BME280;10039;42.632;23.408;2022-07-12T06:46:58;95467.88;;;22.18;44.48
19761;BME280;10039;42.632;23.408;2022-07-12T06:49:25;95464.94;;;22.36;43.44
19761;BME280;10039;42.632;23.408;2022-07-12T06:51:51;95490.28;;;22.62;43.71
19761;BME280;10039;42.632;23.408;2022-07-12T06:54:17;95484.56;;;22.79;42.43
19761;BME280;10039;42.632;23.408;2022-07-12T06:56:42;95481.91;;;22.85;42.91
19761;BME280;10039;42.632;23.408;2022-07-12T06:59:09;95440.31;;;22.84;42.05
19761;BME280;10039;42.632;23.408;2022-07-12T07:01:38;95460.63;;;22.64;42.16
19761;BME280;10039;42.632;23.408;2022-07-12T07:04:04;95478.88;;;23.03;42.12
19761;BME280;10039;42.632;23.408;2022-07-12T07:06:29;95465.69;;;23.16;42.09
19761;BME280;10039;42.632;23.408;2022-07-12T07:08:55;95471.47;;;23.49;41.89
19761;BME280;10039;42.632;23.408;2022-07-12T07:11:21;95477.28;;;23.62;41.80
19761;BME280;10039;42.632;23.408;2022-07-12T07:13:47;95451.63;;;23.48;41.26
19761;BME280;10039;42.632;23.408;2022-07-12T07:16:13;95460.03;;;23.70;40.68
19761;BME280;10039;42.632;23.408;2022-07-12T07:18:39;95468.09;;;23.59;41.27
19761;BME280;10039;42.632;23.408;2022-07-12T07:21:05;95469.53;;;23.80;41.10
19761;BME280;10039;42.632;23.408;2022-07-12T07:23:32;95456.50;;;23.89;40.28
19761;BME280;10039;42.632;23.408;2022-07-12T07:25:57;95470.75;;;24.10;40.84
19761;BME280;10039;42.632;23.408;2022-07-12T07:28:23;95464.84;;;24.17;40.10
19761;BME280;10039;42.632;23.408;2022-07-12T07:30:49;95441.84;;;23.92;39.98
19761;BME280;10039;42.632;23.408;2022-07-12T07:33:26;95484.13;;;24.08;39.51
19761;BME280;10039;42.632;23.408;2022-07-12T07:35:52;95457.31;;;24.01;40.37
19761;BME280;10039;42.632;23.408;2022-07-12T07:38:19;95474.66;;;24.40;39.70
19761;BME280;10039;42.632;23.408;2022-07-12T07:40:45;95467.09;;;24.60;39.25
19761;BME280;10039;42.632;23.408;2022-07-12T07:43:11;95459.97;;;24.74;38.08
19761;BME280;10039;42.632;23.408;2022-07-12T07:45:36;95468.47;;;24.87;37.18
19761;BME280;10039;42.632;23.408;2022-07-12T07:48:02;95455.47;;;24.71;36.05
19761;BME280;10039;42.632;23.408;2022-07-12T07:50:28;95447.41;;;24.45;37.02
19761;BME280;10039;42.632;23.408;2022-07-12T07:52:55;95444.88;;;24.36;36.39
19761;BME280;10039;42.632;23.408;2022-07-12T07:55:20;95448.81;;;24.30;35.64
19761;BME280;10039;42.632;23.408;2022-07-12T07:57:46;95458.53;;;24.42;38.47
19761;BME280;10039;42.632;23.408;2022-07-12T08:00:13;95471.41;;;24.78;38.18
19761;BME280;10039;42.632;23.408;2022-07-12T08:02:40;95449.41;;;24.98;36.79
19761;BME280;10039;42.632;23.408;2022-07-12T08:05:06;95418.06;;;24.93;37.14
19761;BME280;10039;42.632;23.408;2022-07-12T08:07:32;95439.06;;;25.23;36.81
19761;BME280;10039;42.632;23.408;2022-07-12T08:09:57;95432.81;;;25.23;34.44
19761;BME280;10039;42.632;23.408;2022-07-12T08:12:26;95411.41;;;25.05;35.42
19761;BME280;10039;42.632;23.408;2022-07-12T08:14:52;95444.03;;;25.41;34.96
19761;BME280;10039;42.632;23.408;2022-07-12T08:17:17;95430.88;;;25.51;34.64
19761;BME280;10039;42.632;23.408;2022-07-12T08:19:43;95450.78;;;25.79;33.96
19761;BME280;10039;42.632;23.408;2022-07-12T08:22:09;95429.63;;;25.68;34.35
19761;BME280;10039;42.632;23.408;2022-07-12T08:24:35;95431.88;;;25.75;34.19
19761;BME280;10039;42.632;23.408;2022-07-12T08:27:00;95439.59;;;25.71;33.28
19761;BME280;10039;42.632;23.408;2022-07-12T08:29:26;95439.38;;;25.80;34.65
19761;BME280;10039;42.632;23.408;2022-07-12T08:31:51;95439.09;;;25.84;34.21
19761;BME280;10039;42.632;23.408;2022-07-12T08:34:17;95405.53;;;25.78;33.35
19761;BME280;10039;42.632;23.408;2022-07-12T08:36:42;95412.50;;;25.95;33.75
19761;BME280;10039;42.632;23.408;2022-07-12T08:39:09;95402.78;;;26.00;34.17
19761;BME280;10039;42.632;23.408;2022-07-12T08:41:36;95435.84;;;26.07;32.74
19761;BME280;10039;42.632;23.408;2022-07-12T08:44:01;95409.25;;;25.86;32.95
19761;BME280;10039;42.632;23.408;2022-07-12T08:46:27;95428.66;;;26.04;32.94
19761;BME280;10039;42.632;23.408;2022-07-12T08:48:53;95406.78;;;25.93;32.02
19761;BME280;10039;42.632;23.408;2022-07-12T08:51:21;95418.41;;;26.26;32.00
19761;BME280;10039;42.632;23.408;2022-07-12T08:54:05;95421.91;;;26.21;32.39
19761;BME280;10039;42.632;23.408;2022-07-12T08:56:40;95427.84;;;26.31;32.50
19761;BME280;10039;42.632;23.408;2022-07-12T08:59:22;95420.69;;;26.06;31.83
19761;BME280;10039;42.632;23.408;2022-07-12T09:01:53;95396.56;;;25.77;32.89
19761;BME280;10039;42.632;23.408;2022-07-12T09:04:19;95420.72;;;25.95;33.17
19761;BME280;10039;42.632;23.408;2022-07-12T09:06:49;95398.81;;;25.79;32.15
19761;BME280;10039;42.632;23.408;2022-07-12T09:09:34;95416.22;;;25.76;31.81
19761;BME280;10039;42.632;23.408;2022-07-12T09:12:01;95416.22;;;25.70;32.78
19761;BME280;10039;42.632;23.408;2022-07-12T09:14:27;95399.06;;;25.86;32.48
19761;BME280;10039;42.632;23.408;2022-07-12T09:17:07;95393.56;;;26.08;32.87
19761;BME280;10039;42.632;23.408;2022-07-12T09:19:38;95399.69;;;26.58;31.61
19761;BME280;10039;42.632;23.408;2022-07-12T09:22:13;95379.19;;;26.70;31.77
19761;BME280;10039;42.632;23.408;2022-07-12T09:24:40;95398.06;;;26.79;31.66
19761;BME280;10039;42.632;23.408;2022-07-12T09:27:06;95384.56;;;26.92;31.80
19761;BME280;10039;42.632;23.408;2022-07-12T09:29:32;95394.94;;;27.10;31.42
19761;BME280;10039;42.632;23.408;2022-07-12T09:32:06;95398.31;;;27.27;31.95
19761;BME280;10039;42.632;23.408;2022-07-12T09:34:56;95392.94;;;27.45;31.60
19761;BME280;10039;42.632;23.408;2022-07-12T09:37:41;95375.34;;;27.30;31.24
19761;BME280;10039;42.632;23.408;2022-07-12T09:40:08;95375.09;;;27.33;30.70
19761;BME280;10039;42.632;23.408;2022-07-12T09:42:34;95375.06;;;27.38;30.68
19761;BME280;10039;42.632;23.408;2022-07-12T09:45:00;95403.91;;;27.45;30.55
19761;BME280;10039;42.632;23.408;2022-07-12T09:47:26;95376.00;;;27.46;29.65
19761;BME280;10039;42.632;23.408;2022-07-12T09:49:53;95398.03;;;27.70;30.32
19761;BME280;10039;42.632;23.408;2022-07-12T09:52:25;95401.59;;;27.89;30.25
19761;BME280;10039;42.632;23.408;2022-07-12T09:54:55;95393.25;;;28.00;30.30
19761;BME280;10039;42.632;23.408;2022-07-12T09:57:31;95399.38;;;28.12;30.00
19761;BME280;10039;42.632;23.408;2022-07-12T10:00:01;95385.53;;;27.99;30.46
19761;BME280;10039;42.632;23.408;2022-07-12T10:02:28;95360.00;;;27.50;28.05
19761;BME280;10039;42.632;23.408;2022-07-12T10:04:54;95387.06;;;27.65;29.46
19761;BME280;10039;42.632;23.408;2022-07-12T10:07:20;95356.53;;;27.15;28.96
19761;BME280;10039;42.632;23.408;2022-07-12T10:09:48;95391.81;;;27.30;28.28
19761;BME280;10039;42.632;23.408;2022-07-12T10:12:17;95385.25;;;27.43;29.56
19761;BME280;10039;42.632;23.408;2022-07-12T10:14:44;95386.56;;;27.72;30.06
19761;BME280;10039;42.632;23.408;2022-07-12T10:17:10;95347.13;;;27.69;28.38
19761;BME280;10039;42.632;23.408;2022-07-12T10:19:37;95352.06;;;28.00;28.85
19761;BME280;10039;42.632;23.408;2022-07-12T10:22:06;95385.19;;;27.84;29.13
19761;BME280;10039;42.632;23.408;2022-07-12T10:29:43;95380.63;;;27.92;27.60
19761;BME280;10039;42.632;23.408;2022-07-12T10:32:33;95354.25;;;27.83;28.31
19761;BME280;10039;42.632;23.408;2022-07-12T10:35:09;95367.38;;;27.90;28.31
19761;BME280;10039;42.632;23.408;2022-07-12T10:37:37;95351.31;;;27.76;28.70
19761;BME280;10039;42.632;23.408;2022-07-12T10:40:19;95349.66;;;27.91;29.19
19761;BME280;10039;42.632;23.408;2022-07-12T10:48:01;95366.75;;;28.32;28.33
19761;BME280;10039;42.632;23.408;2022-07-12T10:58:39;95340.91;;;28.17;28.22
19761;BME280;10039;42.632;23.408;2022-07-12T11:01:08;95348.69;;;28.37;28.98
19761;BME280;10039;42.632;23.408;2022-07-12T11:06:06;95339.91;;;28.99;27.70
19761;BME280;10039;42.632;23.408;2022-07-12T11:08:50;95346.69;;;28.98;27.27
19761;BME280;10039;42.632;23.408;2022-07-12T11:11:16;95370.97;;;28.94;28.06
19761;BME280;10039;42.632;23.408;2022-07-12T11:13:42;95352.91;;;28.61;27.55
19761;BME280;10039;42.632;23.408;2022-07-12T11:16:08;95365.41;;;28.81;27.83
19761;BME280;10039;42.632;23.408;2022-07-12T11:18:35;95341.63;;;29.02;27.82
19761;BME280;10039;42.632;23.408;2022-07-12T11:21:02;95339.53;;;28.53;27.29
19761;BME280;10039;42.632;23.408;2022-07-12T11:23:29;95367.16;;;28.60;26.94
19761;BME280;10039;42.632;23.408;2022-07-12T11:25:56;95333.31;;;28.89;27.95
19761;BME280;10039;42.632;23.408;2022-07-12T11:28:26;95327.88;;;29.02;28.36
19761;BME280;10039;42.632;23.408;2022-07-12T11:30:54;95327.50;;;29.11;28.04
19761;BME280;10039;42.632;23.408;2022-07-12T11:33:26;95308.13;;;28.66;28.68
19761;BME280;10039;42.632;23.408;2022-07-12T11:35:58;95365.69;;;28.77;27.56
19761;BME280;10039;42.632;23.408;2022-07-12T11:38:28;95343.91;;;28.61;27.26
19761;BME280;10039;42.632;23.408;2022-07-12T11:41:02;95348.31;;;28.27;28.59
19761;BME280;10039;42.632;23.408;2022-07-12T11:43:29;95332.69;;;27.93;27.47
19761;BME280;10039;42.632;23.408;2022-07-12T11:45:55;95317.97;;;27.90;27.90
19761;BME280;10039;42.632;23.408;2022-07-12T11:48:22;95354.03;;;28.29;28.01
19761;BME280;10039;42.632;23.408;2022-07-12T11:50:51;95333.88;;;27.97;28.97
19761;BME280;10039;42.632;23.408;2022-07-12T11:53:25;95337.56;;;28.48;28.17
19761;BME280;10039;42.632;23.408;2022-07-12T11:55:53;95341.59;;;28.65;26.75
19761;BME280;10039;42.632;23.408;2022-07-12T11:58:20;95342.06;;;28.69;28.22
19761;BME280;10039;42.632;23.408;2022-07-12T12:00:47;95325.19;;;28.78;28.59
19761;BME280;10039;42.632;23.408;2022-07-12T12:03:14;95329.88;;;28.83;27.96
19761;BME280;10039;42.632;23.408;2022-07-12T12:05:41;95295.91;;;28.62;27.73
19761;BME280;10039;42.632;23.408;2022-07-12T12:08:08;95323.47;;;28.57;26.22
19761;BME280;10039;42.632;23.408;2022-07-12T12:10:35;95305.50;;;28.37;27.24
19761;BME280;10039;42.632;23.408;2022-07-12T12:13:02;95329.13;;;28.46;27.71
19761;BME280;10039;42.632;23.408;2022-07-12T12:15:32;95331.94;;;28.16;28.57
19761;BME280;10039;42.632;23.408;2022-07-12T12:18:01;95310.31;;;28.07;28.26
19761;BME280;10039;42.632;23.408;2022-07-12T12:20:31;95327.69;;;28.39;28.94
19761;BME280;10039;42.632;23.408;2022-07-12T12:23:01;95338.94;;;28.59;28.99
19761;BME280;10039;42.632;23.408;2022-07-12T12:25:29;95294.53;;;28.56;28.04
19761;BME280;10039;42.632;23.408;2022-07-12T12:28:03;95326.59;;;28.66;28.30
19761;BME280;10039;42.632;23.408;2022-07-12T12:30:30;95296.00;;;28.75;27.39
19761;BME280;10039;42.632;23.408;2022-07-12T12:32:58;95331.09;;;28.87;28.38
19761;BME280;10039;42.632;23.408;2022-07-12T12:35:32;95301.13;;;28.65;28.31
19761;BME280;10039;42.632;23.408;2022-07-12T12:37:59;95331.34;;;29.02;28.91
19761;BME280;10039;42.632;23.408;2022-07-12T12:40:27;95322.88;;;29.00;28.31
19761;BME280;10039;42.632;23.408;2022-07-12T12:43:08;95308.78;;;28.91;28.56
19761;BME280;10039;42.632;23.408;2022-07-12T12:45:35;95301.94;;;28.79;27.79
19761;BME280;10039;42.632;23.408;2022-07-12T12:48:02;95327.06;;;29.07;28.22
19761;BME280;10039;42.632;23.408;2022-07-12T12:50:43;95309.91;;;29.01;28.59
19761;BME280;10039;42.632;23.408;2022-07-12T12:55:38;95332.00;;;28.71;29.37
19761;BME280;10039;42.632;23.408;2022-07-12T12:58:04;95324.63;;;28.66;28.49
19761;BME280;10039;42.632;23.408;2022-07-12T13:00:30;95306.69;;;28.60;28.37
19761;BME280;10039;42.632;23.408;2022-07-12T13:02:59;95299.72;;;28.96;28.35
19761;BME280;10039;42.632;23.408;2022-07-12T13:05:27;95300.25;;;29.26;28.21
19761;BME280;10039;42.632;23.408;2022-07-12T13:07:53;95284.47;;;29.45;27.27
19761;BME280;10039;42.632;23.408;2022-07-12T13:10:20;95293.41;;;29.77;27.58
19761;BME280;10039;42.632;23.408;2022-07-12T13:12:46;95309.56;;;29.54;27.13
19761;BME280;10039;42.632;23.408;2022-07-12T13:15:12;95310.03;;;29.08;26.93
19761;BME280;10039;42.632;23.408;2022-07-12T13:17:38;95279.38;;;28.49;27.32
19761;BME280;10039;42.632;23.408;2022-07-12T13:20:07;95320.41;;;28.42;27.42
19761;BME280;10039;42.632;23.408;2022-07-12T13:22:34;95298.38;;;28.29;27.56